createdAt,value
2022-11-04T00:01:59.586Z,100753.00
2022-11-04T00:08:20.323Z,100763.00
2022-11-04T00:14:22.778Z,100751.00
2022-11-04T00:20:43.515Z,100748.00
2022-11-04T00:27:04.244Z,100735.00
2022-11-04T00:33:25.123Z,100730.00
2022-11-04T00:39:27.055Z,100720.00
2022-11-04T00:45:29.163Z,100720.00
2022-11-04T00:51:31.305Z,100720.00
2022-11-04T00:57:33.511Z,100717.00
2022-11-04T01:03:35.647Z,100708.00
2022-11-04T01:09:37.794Z,100697.00
2022-11-04T01:15:40.417Z,100696.00
2022-11-04T01:21:42.486Z,100696.00
2022-11-04T01:27:44.746Z,100696.00
2022-11-04T01:33:47.636Z,100682.00
2022-11-04T01:39:49.790Z,100667.00
2022-11-04T01:45:56.990Z,100669.00
2022-11-04T01:52:03.133Z,100657.00
2022-11-04T01:58:11.557Z,100652.00
2022-11-04T02:04:26.797Z,100641.00
2022-11-04T02:10:30.678Z,100637.00
2022-11-04T02:16:46.958Z,100637.00
2022-11-04T02:22:52.165Z,100625.00
2022-11-04T02:29:15.251Z,100632.00
2022-11-04T02:35:41.826Z,100636.00
2022-11-04T02:42:16.852Z,100626.00
2022-11-04T02:48:51.990Z,100627.00
2022-11-04T02:55:03.052Z,100615.00
2022-11-04T03:01:08.330Z,100627.00
2022-11-04T03:07:15.310Z,100619.00
2022-11-04T03:13:22.111Z,100608.00
2022-11-04T03:19:40.101Z,100606.00
2022-11-04T03:25:48.201Z,100597.00
2022-11-04T03:31:55.943Z,100590.00
2022-11-04T03:37:59.123Z,100592.00
2022-11-04T03:44:01.570Z,100578.00
2022-11-04T03:50:14.068Z,100581.00
2022-11-04T03:57:21.021Z,100565.00
2022-11-04T04:03:32.122Z,100556.00
2022-11-04T04:09:43.034Z,100556.00
2022-11-04T04:15:54.812Z,100572.00
2022-11-04T04:22:04.605Z,100579.00
2022-11-04T04:28:06.901Z,100582.00
2022-11-04T04:34:09.371Z,100579.00
2022-11-04T04:40:34.453Z,100579.00
2022-11-04T04:46:37.871Z,100572.00
2022-11-04T04:52:43.542Z,100570.00
2022-11-04T04:58:45.548Z,100559.00
2022-11-04T05:04:47.480Z,100562.00
2022-11-04T05:10:49.440Z,100555.00
2022-11-04T05:16:51.924Z,100569.00
2022-11-04T05:22:55.182Z,100563.00
2022-11-04T05:28:57.342Z,100574.00
2022-11-04T05:34:59.882Z,100571.00
2022-11-04T05:41:02.182Z,100576.00
2022-11-04T05:47:04.664Z,100574.00
2022-11-04T05:53:07.120Z,100579.00
2022-11-04T05:59:09.912Z,100551.00
2022-11-04T06:05:12.207Z,100485.00
2022-11-04T06:11:14.604Z,100463.00
2022-11-04T06:17:25.662Z,100552.00
2022-11-04T06:23:27.909Z,100526.00
2022-11-04T06:29:30.160Z,100449.00
2022-11-04T06:35:32.421Z,100483.00
2022-11-04T06:41:35.071Z,100547.00
2022-11-04T06:47:37.345Z,100587.00
2022-11-04T06:53:39.591Z,100582.00
2022-11-04T06:59:41.909Z,100576.00
2022-11-04T07:05:44.039Z,100551.00
2022-11-04T07:11:46.235Z,100551.00
2022-11-04T07:17:48.441Z,100398.00
2022-11-04T07:23:50.491Z,100403.00
2022-11-04T07:29:52.845Z,100411.00
2022-11-04T07:35:58.295Z,100419.00
2022-11-04T07:42:01.105Z,100474.00
2022-11-04T07:48:03.505Z,100462.00
2022-11-04T07:54:05.578Z,100431.00
2022-11-04T08:00:08.920Z,100491.00
2022-11-04T08:06:15.482Z,100480.00
2022-11-04T08:12:17.729Z,100450.00
2022-11-04T08:18:20.275Z,100489.00
2022-11-04T08:24:22.243Z,100461.00
2022-11-04T08:30:24.652Z,100493.00
2022-11-04T08:36:30.277Z,100475.00
2022-11-04T08:42:32.573Z,100475.00
2022-11-04T08:48:35.149Z,100489.00
2022-11-04T08:54:37.612Z,100476.00
2022-11-04T09:00:40.129Z,100465.00
2022-11-04T09:06:45.087Z,100456.00
2022-11-04T09:12:47.381Z,100460.00
2022-11-04T09:18:49.759Z,100460.00
2022-11-04T09:24:51.913Z,100457.00
2022-11-04T09:30:54.302Z,100442.00
2022-11-04T09:36:57.303Z,100439.00
2022-11-04T09:43:17.663Z,100433.00
2022-11-04T09:49:21.138Z,100424.00
2022-11-04T09:55:26.533Z,100413.00
2022-11-04T10:01:50.541Z,100408.00
2022-11-04T10:08:18.844Z,100391.00
2022-11-04T10:14:36.166Z,100372.00
2022-11-04T10:20:59.939Z,100371.00
2022-11-04T10:27:10.797Z,100358.00
2022-11-04T10:33:24.478Z,100350.00
2022-11-04T10:39:29.795Z,100333.00
2022-11-04T10:45:41.612Z,100332.00
2022-11-04T10:51:45.529Z,100313.00
2022-11-04T10:57:47.583Z,100313.00
2022-11-04T11:03:49.783Z,100306.00
2022-11-04T11:09:54.799Z,100292.00
2022-11-04T11:16:09.871Z,100296.00
2022-11-04T11:22:34.563Z,100251.00
2022-11-04T11:28:38.899Z,100246.00
2022-11-04T11:34:41.670Z,100205.00
2022-11-04T11:41:10.458Z,100239.00
2022-11-04T11:47:08.501Z,100154.00
2022-11-04T11:53:20.812Z,100241.00
2022-11-04T12:12:43.101Z,100228.00
2022-11-04T12:19:06.532Z,100220.00
2022-11-04T12:25:37.867Z,100220.00
2022-11-04T12:31:45.819Z,100218.00
2022-11-04T12:38:11.447Z,100214.00
2022-11-04T12:44:31.283Z,100207.00
2022-11-04T12:50:42.829Z,100205.00
2022-11-04T12:56:45.016Z,100204.00
2022-11-04T13:03:09.153Z,100185.00
2022-11-04T13:09:30.407Z,100170.00
2022-11-04T13:15:43.561Z,100167.00
2022-11-04T13:21:46.110Z,100165.00
2022-11-04T13:27:48.415Z,100157.00
2022-11-04T13:34:20.464Z,100158.00
2022-11-04T13:40:36.272Z,100154.00
2022-11-04T13:46:38.482Z,100149.00
2022-11-04T13:52:52.618Z,100152.00
2022-11-04T13:59:00.706Z,100154.00
2022-11-04T14:05:28.610Z,100154.00
2022-11-04T14:11:34.798Z,100152.00
2022-11-04T14:17:40.137Z,100139.00
2022-11-04T14:24:00.861Z,100145.00
2022-11-04T14:30:03.933Z,100137.00
2022-11-04T14:36:21.761Z,100135.00
2022-11-04T14:42:43.916Z,100131.00
2022-11-04T14:48:52.270Z,100123.00
2022-11-04T14:55:18.182Z,100112.00
2022-11-04T15:01:20.729Z,100118.00
2022-11-04T15:07:41.488Z,100119.00
2022-11-04T15:13:48.204Z,100112.00
2022-11-04T15:19:53.649Z,100099.00
2022-11-04T15:25:57.582Z,100104.00
2022-11-04T15:32:04.881Z,100100.00
2022-11-04T15:38:12.026Z,100088.00
2022-11-04T15:44:21.271Z,100088.00
2022-11-04T15:50:26.205Z,100090.00
2022-11-04T15:56:40.705Z,100089.00
2022-11-04T16:02:50.843Z,100086.00
2022-11-04T16:09:02.864Z,100094.00
2022-11-04T16:15:05.380Z,100091.00
2022-11-04T16:21:14.765Z,100100.00
2022-11-04T16:27:20.641Z,100095.00
2022-11-04T16:33:22.974Z,100093.00
2022-11-04T16:39:25.318Z,100102.00
2022-11-04T16:45:32.854Z,100103.00
2022-11-04T16:51:35.305Z,100108.00
2022-11-04T16:57:37.810Z,100102.00
2022-11-04T17:03:40.811Z,100110.00
2022-11-04T17:09:43.163Z,100111.00
2022-11-04T17:15:45.518Z,100108.00
2022-11-04T17:21:47.969Z,100104.00
2022-11-04T17:27:50.366Z,100097.00
2022-11-04T17:33:52.767Z,100096.00
2022-11-04T17:39:55.522Z,100087.00
2022-11-04T17:46:17.779Z,100082.00
2022-11-04T17:52:20.243Z,100079.00
2022-11-04T17:58:22.416Z,100088.00
2022-11-04T18:04:24.770Z,100081.00
2022-11-04T18:10:26.881Z,100076.00
2022-11-04T18:16:29.173Z,100080.00
2022-11-04T18:22:31.132Z,100082.00
2022-11-04T18:28:33.249Z,100088.00
2022-11-04T18:34:35.983Z,100080.00
2022-11-04T18:40:38.205Z,100077.00
2022-11-04T18:46:40.402Z,100070.00
2022-11-04T18:52:42.544Z,100065.00
2022-11-04T18:58:48.089Z,100065.00
2022-11-04T19:04:51.262Z,100056.00
2022-11-04T19:11:01.107Z,100060.00
2022-11-04T19:17:03.900Z,100057.00
2022-11-04T19:23:06.172Z,100053.00
2022-11-04T19:29:08.358Z,100067.00
2022-11-04T19:35:10.833Z,100064.00
2022-11-04T19:41:37.562Z,100061.00
2022-11-04T19:47:40.069Z,100066.00
2022-11-04T19:53:42.287Z,100083.00
2022-11-04T19:59:44.813Z,100070.00
2022-11-04T20:05:47.555Z,100066.00
2022-11-04T20:12:08.689Z,100065.00
2022-11-04T20:18:11.029Z,100066.00
2022-11-04T20:24:14.143Z,100075.00
2022-11-04T20:30:16.279Z,100075.00
2022-11-04T20:36:21.427Z,100063.00
2022-11-04T20:42:23.888Z,100070.00
2022-11-04T20:48:26.262Z,100063.00
2022-11-04T20:54:29.007Z,100059.00
2022-11-04T21:00:31.501Z,100068.00
2022-11-04T21:06:37.822Z,100068.00
2022-11-04T21:12:39.899Z,100061.00
2022-11-04T21:18:42.122Z,100059.00
2022-11-04T21:24:44.315Z,100049.00
2022-11-04T21:30:49.270Z,100052.00
2022-11-04T21:36:52.506Z,100042.00
2022-11-04T21:42:54.884Z,100046.00
2022-11-04T21:48:57.321Z,100047.00
2022-11-04T21:54:59.386Z,100042.00
2022-11-04T22:01:02.006Z,100044.00
2022-11-04T22:07:04.232Z,100035.00
2022-11-04T22:13:06.401Z,100039.00
2022-11-04T22:19:11.134Z,100037.00
2022-11-04T22:25:13.235Z,100040.00
2022-11-04T22:31:17.145Z,100030.00
2022-11-04T22:37:19.368Z,100025.00
2022-11-04T22:43:21.470Z,100031.00
2022-11-04T22:49:23.757Z,100028.00
2022-11-04T22:55:26.117Z,100023.00
2022-11-04T23:01:28.558Z,100006.00
2022-11-04T23:07:31.149Z,100008.00
2022-11-04T23:13:52.234Z,100000.00
2022-11-04T23:19:54.640Z,99999.00
2022-11-04T23:25:56.796Z,100003.00
2022-11-04T23:31:59.275Z,100015.00
2022-11-04T23:38:01.823Z,100012.00
2022-11-04T23:44:04.173Z,100014.00
2022-11-04T23:50:25.218Z,100026.00
2022-11-04T23:56:46.633Z,100037.00
